Wilford Hall USAF Hosp, Texas
Current Conditions -  °F | °C
As of 3:58 AM on Sunday 23 Nov 2014 (Local Time) from KSKF Reporting Station
Clear Clear  
Wind Chill: 54°   Ceiling: Unl
Heat Index: 54°   Visibility: 10mi
Dew Point: 52°   Wind: 5mph
Humidity: 93%   Direction: 280°W
Pressure: 29.7"   Gusts: NA
Location:  29.3853°N, 98.6099°W
Report Text: KSKF 230958Z AUTO 28004KT 10SM CLR 12/11 A2970 RMK AO2 SLP053 T01240113 $
Loading
Personal Weather Stations






























Interactive Weather Map New forecast layout! Learn more

10-Day Weather Forecast

Advertisements
Track Severe Weather on mobile